createdAt,value
2023-04-07T00:00:04.198Z,100.00
2023-04-07T00:02:32.556Z,100.00
2023-04-07T00:05:00.360Z,100.00
2023-04-07T00:07:27.189Z,100.00
2023-04-07T00:09:53.844Z,100.00
2023-04-07T00:12:20.747Z,100.00
2023-04-07T00:14:47.573Z,100.00
2023-04-07T00:17:14.379Z,100.00
2023-04-07T00:19:41.298Z,100.00
2023-04-07T00:22:08.031Z,100.00
2023-04-07T00:24:34.969Z,100.00
2023-04-07T00:27:02.278Z,100.00
2023-04-07T00:29:29.218Z,100.00
2023-04-07T00:31:56.188Z,100.00
2023-04-07T00:34:22.978Z,100.00
2023-04-07T00:36:52.499Z,100.00
2023-04-07T00:39:20.069Z,100.00
2023-04-07T00:41:47.055Z,100.00
2023-04-07T00:44:14.261Z,100.00
2023-04-07T00:46:41.748Z,100.00
2023-04-07T00:49:11.065Z,100.00
2023-04-07T00:51:38.268Z,100.00
2023-04-07T00:54:05.633Z,100.00
2023-04-07T00:56:32.706Z,100.00
2023-04-07T00:58:59.410Z,100.00
2023-04-07T01:01:31.310Z,100.00
2023-04-07T01:04:13.803Z,100.00
2023-04-07T01:06:44.653Z,100.00
2023-04-07T01:09:22.201Z,100.00
2023-04-07T01:12:02.546Z,100.00
2023-04-07T01:14:33.364Z,100.00
2023-04-07T01:17:02.235Z,100.00
2023-04-07T01:19:38.556Z,100.00
2023-04-07T01:22:12.944Z,100.00
2023-04-07T01:24:51.098Z,100.00
2023-04-07T01:27:55.252Z,100.00
2023-04-07T01:30:23.331Z,100.00
2023-04-07T01:32:53.729Z,100.00
2023-04-07T01:35:21.242Z,100.00
2023-04-07T01:37:49.510Z,100.00
2023-04-07T01:40:16.749Z,100.00
2023-04-07T01:42:44.073Z,100.00
2023-04-07T01:45:11.805Z,100.00
2023-04-07T01:47:39.039Z,100.00
2023-04-07T01:50:06.605Z,100.00
2023-04-07T01:52:35.048Z,100.00
2023-04-07T01:55:02.009Z,100.00
2023-04-07T01:57:28.778Z,100.00
2023-04-07T01:59:55.606Z,100.00
2023-04-07T02:02:22.642Z,100.00
2023-04-07T02:04:53.461Z,100.00
2023-04-07T02:07:42.677Z,100.00
2023-04-07T02:10:12.955Z,100.00
2023-04-07T02:12:41.036Z,100.00
2023-04-07T02:15:10.055Z,100.00
2023-04-07T02:17:39.765Z,100.00
2023-04-07T02:20:08.411Z,100.00
2023-04-07T02:22:35.453Z,100.00
2023-04-07T02:25:02.225Z,100.00
2023-04-07T02:27:28.987Z,100.00
2023-04-07T02:29:55.926Z,100.00
2023-04-07T02:32:22.581Z,100.00
2023-04-07T02:34:49.372Z,100.00
2023-04-07T02:37:16.121Z,100.00
2023-04-07T02:39:42.866Z,100.00
2023-04-07T02:42:09.630Z,100.00
2023-04-07T02:44:36.365Z,100.00
2023-04-07T02:47:03.126Z,100.00
2023-04-07T02:49:29.844Z,100.00
2023-04-07T02:51:56.587Z,100.00
2023-04-07T02:54:23.426Z,100.00
2023-04-07T02:56:50.196Z,100.00
2023-04-07T02:59:17.258Z,100.00
2023-04-07T03:01:44.020Z,100.00
2023-04-07T03:04:10.912Z,100.00
2023-04-07T03:06:37.744Z,100.00
2023-04-07T03:09:04.760Z,100.00
2023-04-07T03:11:31.444Z,100.00
2023-04-07T03:13:58.163Z,100.00
2023-04-07T03:16:24.844Z,100.00
2023-04-07T03:18:51.618Z,100.00
2023-04-07T03:21:18.593Z,100.00
2023-04-07T03:23:45.844Z,100.00
2023-04-07T03:26:12.616Z,100.00
2023-04-07T03:28:39.357Z,100.00
2023-04-07T03:31:06.175Z,100.00
2023-04-07T03:33:32.924Z,100.00
2023-04-07T03:35:59.801Z,100.00
2023-04-07T03:38:26.722Z,100.00
2023-04-07T03:40:53.487Z,100.00
2023-04-07T03:43:20.216Z,100.00
2023-04-07T03:45:47.428Z,100.00
2023-04-07T03:48:14.224Z,100.00
2023-04-07T03:50:41.516Z,100.00
2023-04-07T03:53:08.509Z,100.00
2023-04-07T03:55:35.343Z,100.00
2023-04-07T03:58:02.117Z,100.00
2023-04-07T04:00:28.938Z,100.00
2023-04-07T04:02:55.772Z,100.00
2023-04-07T04:05:22.555Z,100.00
2023-04-07T04:07:51.375Z,100.00
2023-04-07T04:10:18.169Z,100.00
2023-04-07T04:12:45.211Z,100.00
2023-04-07T04:15:12.028Z,100.00
2023-04-07T04:17:38.850Z,100.00
2023-04-07T04:20:06.571Z,100.00
2023-04-07T04:22:33.155Z,100.00
2023-04-07T04:25:00.423Z,100.00
2023-04-07T04:27:27.632Z,100.00
2023-04-07T04:29:54.587Z,100.00
2023-04-07T04:32:21.391Z,100.00
2023-04-07T04:34:48.269Z,100.00
2023-04-07T04:37:14.876Z,100.00
2023-04-07T04:39:41.463Z,100.00
2023-04-07T04:42:08.055Z,100.00
2023-04-07T04:44:34.686Z,100.00
2023-04-07T04:47:01.668Z,100.00
2023-04-07T04:49:28.439Z,100.00
2023-04-07T04:51:55.060Z,100.00
2023-04-07T04:54:21.769Z,100.00
2023-04-07T04:56:48.573Z,100.00
2023-04-07T04:59:15.192Z,100.00
2023-04-07T05:01:41.821Z,100.00
2023-04-07T05:04:10.407Z,100.00
2023-04-07T05:06:37.606Z,100.00
2023-04-07T05:09:04.397Z,100.00
2023-04-07T05:11:31.362Z,100.00
2023-04-07T05:13:57.983Z,100.00
2023-04-07T05:16:24.693Z,100.00
2023-04-07T05:18:51.506Z,100.00
2023-04-07T05:21:20.345Z,100.00
2023-04-07T05:23:47.033Z,100.00
2023-04-07T05:26:13.804Z,100.00
2023-04-07T05:28:40.674Z,100.00
2023-04-07T05:31:08.057Z,100.00
2023-04-07T05:33:34.854Z,100.00
2023-04-07T05:36:01.685Z,100.00
2023-04-07T05:38:28.396Z,100.00
2023-04-07T05:40:55.103Z,100.00
2023-04-07T05:43:21.822Z,100.00
2023-04-07T05:45:48.632Z,100.00
2023-04-07T05:48:15.409Z,100.00
2023-04-07T05:50:42.694Z,100.00
2023-04-07T05:53:09.392Z,100.00
2023-04-07T05:55:36.504Z,100.00
2023-04-07T05:58:03.736Z,100.00
2023-04-07T06:00:30.518Z,100.00
2023-04-07T06:02:57.341Z,100.00
2023-04-07T06:05:24.529Z,100.00
2023-04-07T06:07:51.376Z,100.00
2023-04-07T06:10:18.132Z,100.00
2023-04-07T06:12:45.156Z,100.00
2023-04-07T06:15:11.806Z,100.00
2023-04-07T06:17:38.634Z,100.00
2023-04-07T06:20:06.408Z,100.00
2023-04-07T06:22:33.166Z,100.00
2023-04-07T06:24:59.938Z,100.00
2023-04-07T06:27:26.728Z,100.00
2023-04-07T06:29:53.474Z,100.00
2023-04-07T06:32:20.466Z,100.00
2023-04-07T06:34:47.406Z,100.00
2023-04-07T06:37:14.393Z,100.00
2023-04-07T06:39:41.303Z,100.00
2023-04-07T06:42:08.013Z,100.00
2023-04-07T06:44:34.844Z,100.00
2023-04-07T06:47:01.626Z,100.00
2023-04-07T06:49:28.385Z,100.00
2023-04-07T06:51:55.087Z,100.00
2023-04-07T06:54:21.904Z,100.00
2023-04-07T06:56:48.645Z,100.00
2023-04-07T06:59:18.729Z,100.00
2023-04-07T07:01:49.329Z,100.00
2023-04-07T07:04:16.324Z,100.00
2023-04-07T07:06:43.157Z,100.00
2023-04-07T07:09:09.985Z,100.00
2023-04-07T07:11:36.714Z,100.00
2023-04-07T07:14:03.454Z,100.00
2023-04-07T07:16:30.301Z,100.00
2023-04-07T07:18:57.076Z,100.00
2023-04-07T07:21:23.808Z,100.00
2023-04-07T07:23:50.604Z,100.00
2023-04-07T07:26:17.369Z,100.00
2023-04-07T07:28:44.188Z,100.00
2023-04-07T07:31:13.465Z,100.00
2023-04-07T07:33:41.542Z,100.00
2023-04-07T07:36:08.763Z,100.00
2023-04-07T07:38:37.019Z,100.00
2023-04-07T07:41:04.815Z,100.00
2023-04-07T07:43:31.611Z,100.00
2023-04-07T07:45:58.396Z,100.00
2023-04-07T07:48:25.457Z,100.00
2023-04-07T07:50:52.652Z,100.00
2023-04-07T07:53:19.473Z,100.00
2023-04-07T07:55:47.175Z,100.00
2023-04-07T07:58:14.055Z,100.00
2023-04-07T08:00:41.022Z,100.00
2023-04-07T08:03:08.112Z,100.00
2023-04-07T08:05:34.964Z,100.00
2023-04-07T08:08:01.711Z,100.00
2023-04-07T08:10:28.629Z,100.00
2023-04-07T08:12:55.364Z,100.00
2023-04-07T08:15:22.275Z,100.00
2023-04-07T08:17:49.192Z,100.00
2023-04-07T08:20:16.457Z,100.00
2023-04-07T08:22:43.357Z,100.00
2023-04-07T08:25:10.870Z,100.00
2023-04-07T08:27:37.687Z,100.00
2023-04-07T08:30:07.088Z,100.00
2023-04-07T08:32:38.355Z,100.00
2023-04-07T08:35:05.561Z,100.00
2023-04-07T08:37:34.178Z,99.78
2023-04-07T08:40:01.818Z,94.90
2023-04-07T08:42:30.890Z,92.51
2023-04-07T08:45:00.838Z,91.71
2023-04-07T08:47:28.553Z,93.89
2023-04-07T08:49:58.292Z,91.08
2023-04-07T08:52:32.490Z,87.87
2023-04-07T08:55:03.107Z,81.12
2023-04-07T08:57:33.210Z,86.07
2023-04-07T09:00:07.416Z,88.31
2023-04-07T09:02:35.448Z,87.30
2023-04-07T09:05:07.749Z,85.24
2023-04-07T09:07:36.342Z,80.09
2023-04-07T09:10:03.785Z,77.95
2023-04-07T09:12:31.865Z,78.60
2023-04-07T09:14:58.996Z,81.95
2023-04-07T09:17:27.346Z,78.82
2023-04-07T09:19:57.848Z,81.91
2023-04-07T09:22:42.623Z,83.38
2023-04-07T09:25:15.039Z,78.43
2023-04-07T09:27:42.948Z,74.58
2023-04-07T09:30:15.713Z,75.31
2023-04-07T09:32:42.766Z,70.76
2023-04-07T09:35:09.699Z,68.70
2023-04-07T09:37:36.589Z,68.30
2023-04-07T09:40:04.029Z,66.58
2023-04-07T09:42:36.139Z,63.97
2023-04-07T09:45:03.240Z,67.02
2023-04-07T09:47:32.895Z,64.46
2023-04-07T09:50:02.126Z,61.38
2023-04-07T09:52:53.848Z,57.88
2023-04-07T09:55:22.805Z,56.00
2023-04-07T09:57:53.284Z,58.05
2023-04-07T10:00:20.027Z,58.49
2023-04-07T10:02:48.070Z,55.13
2023-04-07T10:05:15.152Z,57.21
2023-04-07T10:07:42.779Z,55.62
2023-04-07T10:10:10.586Z,54.83
2023-04-07T10:12:38.292Z,54.29
2023-04-07T10:15:05.414Z,52.00
2023-04-07T10:17:32.851Z,53.15
2023-04-07T10:19:59.929Z,56.17
2023-04-07T10:22:28.175Z,53.04
2023-04-07T10:25:05.222Z,53.80
2023-04-07T10:27:51.332Z,51.90
2023-04-07T10:30:30.081Z,50.45
2023-04-07T10:32:57.223Z,53.12
2023-04-07T10:35:24.626Z,51.55
2023-04-07T10:38:11.866Z,56.43
2023-04-07T10:40:38.784Z,53.77
2023-04-07T10:43:09.807Z,52.29
2023-04-07T10:45:48.954Z,51.35
2023-04-07T10:48:17.306Z,50.23
2023-04-07T10:50:45.569Z,51.46
2023-04-07T10:53:13.884Z,51.25
2023-04-07T10:55:42.103Z,51.18
2023-04-07T10:58:18.464Z,51.89
2023-04-07T11:01:00.640Z,50.24
2023-04-07T11:03:29.164Z,49.76
2023-04-07T11:06:15.959Z,50.68
2023-04-07T11:08:49.167Z,52.00
2023-04-07T11:11:21.007Z,49.80
2023-04-07T11:13:49.358Z,52.50
2023-04-07T11:16:19.625Z,51.78
2023-04-07T11:18:48.192Z,51.66
2023-04-07T11:21:19.271Z,52.84
2023-04-07T11:23:47.960Z,50.73
2023-04-07T11:26:15.761Z,50.49
2023-04-07T11:28:50.205Z,49.81
2023-04-07T11:31:25.180Z,52.11
2023-04-07T11:33:54.253Z,48.62
2023-04-07T11:36:40.966Z,47.32
2023-04-07T11:39:19.924Z,47.22
2023-04-07T11:41:48.386Z,47.10
2023-04-07T11:44:15.174Z,50.33
2023-04-07T11:47:03.646Z,48.27
2023-04-07T11:49:31.905Z,45.74
2023-04-07T11:52:03.928Z,47.27
2023-04-07T11:54:43.754Z,48.73
2023-04-07T11:57:13.131Z,45.84
2023-04-07T11:59:41.029Z,46.09
2023-04-07T12:02:08.641Z,46.49
2023-04-07T12:04:37.979Z,47.12
2023-04-07T12:07:11.934Z,46.43
2023-04-07T12:09:39.142Z,48.03
2023-04-07T12:12:08.100Z,44.93
2023-04-07T12:14:35.649Z,47.15
2023-04-07T12:17:03.841Z,46.65
2023-04-07T12:19:36.121Z,47.41
2023-04-07T12:22:04.158Z,50.95
2023-04-07T12:24:32.475Z,53.83
2023-04-07T12:26:59.748Z,46.07
2023-04-07T12:29:26.560Z,45.72
2023-04-07T12:31:53.390Z,45.91
2023-04-07T12:34:20.833Z,45.05
2023-04-07T12:36:47.654Z,47.03
2023-04-07T12:39:15.621Z,47.97
2023-04-07T12:41:42.544Z,47.50
2023-04-07T12:44:09.867Z,46.07
2023-04-07T12:46:36.546Z,48.50
2023-04-07T12:49:03.600Z,47.18
2023-04-07T12:51:31.607Z,45.76
2023-04-07T12:53:58.676Z,47.37
2023-04-07T12:56:25.485Z,44.98
2023-04-07T12:58:53.550Z,45.90
2023-04-07T13:01:21.213Z,46.30
2023-04-07T13:03:48.364Z,46.84
2023-04-07T13:06:15.983Z,46.41
2023-04-07T13:08:42.816Z,46.37
2023-04-07T13:11:09.540Z,46.68
2023-04-07T13:13:36.791Z,45.78
2023-04-07T13:16:03.574Z,46.19
2023-04-07T13:18:30.424Z,44.68
2023-04-07T13:21:19.818Z,46.39
2023-04-07T13:23:44.156Z,46.14
2023-04-07T13:26:11.503Z,47.58
2023-04-07T13:28:39.979Z,46.52
2023-04-07T13:31:07.788Z,46.78
2023-04-07T13:33:35.063Z,47.44
2023-04-07T13:36:02.015Z,46.07
2023-04-07T13:38:28.840Z,45.17
2023-04-07T13:40:55.536Z,45.73
2023-04-07T13:43:22.323Z,45.14
2023-04-07T13:45:49.509Z,47.64
2023-04-07T13:48:16.352Z,46.36
2023-04-07T13:50:43.045Z,46.50
2023-04-07T13:53:09.772Z,47.28
2023-04-07T13:55:36.978Z,47.76
2023-04-07T13:58:03.725Z,46.95
2023-04-07T14:00:30.817Z,46.87
2023-04-07T14:02:57.691Z,47.11
2023-04-07T14:05:24.846Z,48.03
2023-04-07T14:07:51.731Z,47.21
2023-04-07T14:10:18.693Z,47.91
2023-04-07T14:12:45.430Z,50.04
2023-04-07T14:15:12.191Z,47.18
2023-04-07T14:17:38.961Z,46.97
2023-04-07T14:20:06.608Z,47.37
2023-04-07T14:22:33.432Z,48.17
2023-04-07T14:25:00.666Z,48.18
2023-04-07T14:27:31.092Z,47.28
2023-04-07T14:29:59.685Z,46.29
2023-04-07T14:32:29.567Z,45.75
2023-04-07T14:34:56.833Z,44.76
2023-04-07T14:37:26.530Z,46.13
2023-04-07T14:40:02.674Z,46.88
2023-04-07T14:42:30.343Z,48.12
2023-04-07T14:44:57.388Z,48.18
2023-04-07T14:47:24.229Z,45.97
2023-04-07T14:49:53.357Z,45.35
2023-04-07T14:52:22.135Z,47.24
2023-04-07T14:54:49.092Z,44.48
2023-04-07T14:57:16.918Z,44.61
2023-04-07T14:59:44.013Z,46.14
2023-04-07T15:02:11.113Z,45.56
2023-04-07T15:04:38.163Z,48.94
2023-04-07T15:07:05.405Z,48.38
2023-04-07T15:09:32.124Z,46.76
2023-04-07T15:12:00.578Z,47.00
2023-04-07T15:14:27.415Z,47.26
2023-04-07T15:16:54.280Z,47.47
2023-04-07T15:19:20.960Z,47.16
2023-04-07T15:21:47.906Z,47.67
2023-04-07T15:24:16.208Z,48.24
2023-04-07T15:26:43.394Z,47.67
2023-04-07T15:29:10.081Z,45.58
2023-04-07T15:31:36.900Z,46.01
2023-04-07T15:34:03.627Z,47.92
2023-04-07T15:36:31.655Z,48.79
2023-04-07T15:39:04.142Z,49.48
2023-04-07T15:41:31.329Z,48.64
2023-04-07T15:43:59.704Z,50.55
2023-04-07T15:46:26.907Z,51.08
2023-04-07T15:48:53.668Z,51.08
2023-04-07T15:51:20.634Z,51.38
2023-04-07T15:53:47.679Z,52.15
2023-04-07T15:56:14.594Z,52.95
2023-04-07T15:58:41.430Z,53.11
2023-04-07T16:01:08.537Z,54.24
2023-04-07T16:03:35.446Z,54.98
2023-04-07T16:06:02.273Z,55.29
2023-04-07T16:08:29.012Z,55.00
2023-04-07T16:10:55.742Z,55.33
2023-04-07T16:13:22.422Z,54.52
2023-04-07T16:15:49.245Z,56.46
2023-04-07T16:18:16.280Z,56.85
2023-04-07T16:20:43.044Z,58.34
2023-04-07T16:23:09.860Z,63.48
2023-04-07T16:25:36.732Z,67.87
2023-04-07T16:28:03.586Z,68.03
2023-04-07T16:30:30.445Z,65.08
2023-04-07T16:32:57.412Z,62.71
2023-04-07T16:35:24.499Z,63.80
2023-04-07T16:37:52.254Z,67.39
2023-04-07T16:40:19.114Z,69.35
2023-04-07T16:42:47.045Z,69.09
2023-04-07T16:45:13.812Z,69.20
2023-04-07T16:47:44.423Z,69.93
2023-04-07T16:50:11.861Z,71.48
2023-04-07T16:52:38.658Z,74.72
2023-04-07T16:55:05.903Z,75.18
2023-04-07T16:57:32.559Z,77.82
2023-04-07T16:59:59.413Z,79.26
2023-04-07T17:02:27.621Z,80.31
2023-04-07T17:04:54.742Z,82.17
2023-04-07T17:07:21.563Z,81.68
2023-04-07T17:09:48.284Z,80.38
2023-04-07T17:12:15.093Z,79.74
2023-04-07T17:14:41.859Z,81.37
2023-04-07T17:17:08.573Z,83.74
2023-04-07T17:19:35.786Z,85.02
2023-04-07T17:22:02.631Z,86.21
2023-04-07T17:24:29.362Z,88.53
2023-04-07T17:26:58.444Z,91.35
2023-04-07T17:29:34.504Z,92.39
2023-04-07T17:32:03.575Z,93.15
2023-04-07T17:34:30.860Z,94.67
2023-04-07T17:36:57.656Z,95.33
2023-04-07T17:39:24.327Z,95.81
2023-04-07T17:41:51.971Z,99.00
2023-04-07T17:44:18.721Z,99.85
2023-04-07T17:46:45.798Z,99.18
2023-04-07T17:49:12.753Z,99.60
2023-04-07T17:51:39.472Z,100.00
2023-04-07T17:54:06.230Z,100.00
2023-04-07T17:56:33.011Z,100.00
2023-04-07T17:58:59.853Z,100.00
2023-04-07T18:01:26.683Z,100.00
2023-04-07T18:03:54.305Z,100.00
2023-04-07T18:06:21.948Z,100.00
2023-04-07T18:08:49.280Z,100.00
2023-04-07T18:11:17.398Z,100.00
2023-04-07T18:13:45.052Z,100.00
2023-04-07T18:16:19.931Z,100.00
2023-04-07T18:18:49.987Z,100.00
2023-04-07T18:21:17.429Z,100.00
2023-04-07T18:23:44.202Z,100.00
2023-04-07T18:26:11.040Z,100.00
2023-04-07T18:28:37.813Z,100.00
2023-04-07T18:31:07.795Z,100.00
2023-04-07T18:33:35.834Z,100.00
2023-04-07T18:36:08.066Z,100.00
2023-04-07T18:38:36.096Z,100.00
2023-04-07T18:41:03.143Z,100.00
2023-04-07T18:43:30.743Z,100.00
2023-04-07T18:45:57.757Z,100.00
2023-04-07T18:48:25.052Z,100.00
2023-04-07T18:50:55.716Z,100.00
2023-04-07T18:53:24.581Z,100.00
2023-04-07T18:55:51.421Z,100.00
2023-04-07T18:58:19.565Z,100.00
2023-04-07T19:00:49.704Z,100.00
2023-04-07T19:03:18.064Z,100.00
2023-04-07T19:05:47.636Z,100.00
2023-04-07T19:08:15.970Z,100.00
2023-04-07T19:10:43.497Z,100.00
2023-04-07T19:13:10.822Z,100.00
2023-04-07T19:15:38.468Z,100.00
2023-04-07T19:18:06.065Z,100.00
2023-04-07T19:20:34.212Z,100.00
2023-04-07T19:23:01.952Z,100.00
2023-04-07T19:25:29.985Z,100.00
2023-04-07T19:27:57.706Z,100.00
2023-04-07T19:30:24.621Z,100.00
2023-04-07T19:32:51.479Z,100.00
2023-04-07T19:35:18.799Z,100.00
2023-04-07T19:37:47.865Z,100.00
2023-04-07T19:40:15.788Z,100.00
2023-04-07T19:42:42.656Z,100.00
2023-04-07T19:45:10.888Z,100.00
2023-04-07T19:47:38.886Z,100.00
2023-04-07T19:50:06.403Z,100.00
2023-04-07T19:52:33.325Z,100.00
2023-04-07T19:55:03.048Z,100.00
2023-04-07T19:57:31.257Z,100.00
2023-04-07T19:59:58.009Z,100.00
2023-04-07T20:02:25.163Z,100.00
2023-04-07T20:04:53.288Z,100.00
2023-04-07T20:07:20.054Z,100.00
2023-04-07T20:09:50.666Z,100.00
2023-04-07T20:12:17.972Z,100.00
2023-04-07T20:14:44.966Z,100.00
2023-04-07T20:17:12.115Z,100.00
2023-04-07T20:19:38.886Z,100.00
2023-04-07T20:22:06.622Z,100.00
2023-04-07T20:24:36.144Z,100.00
2023-04-07T20:27:02.871Z,100.00
2023-04-07T20:29:29.619Z,100.00
2023-04-07T20:31:56.302Z,100.00
2023-04-07T20:34:22.996Z,100.00
2023-04-07T20:36:49.715Z,100.00
2023-04-07T20:39:16.639Z,100.00
2023-04-07T20:41:45.186Z,100.00
2023-04-07T20:44:12.360Z,100.00
2023-04-07T20:46:39.211Z,100.00
2023-04-07T20:49:08.036Z,100.00
2023-04-07T20:51:37.569Z,100.00
2023-04-07T20:54:05.105Z,100.00
2023-04-07T20:56:31.979Z,100.00
2023-04-07T20:58:58.991Z,100.00
2023-04-07T21:01:25.843Z,100.00
2023-04-07T21:03:54.029Z,100.00
2023-04-07T21:06:21.539Z,100.00
2023-04-07T21:08:48.398Z,100.00
2023-04-07T21:11:15.534Z,100.00
2023-04-07T21:13:42.137Z,100.00
2023-04-07T21:16:08.995Z,100.00
2023-04-07T21:18:35.916Z,100.00
2023-04-07T21:21:03.111Z,100.00
2023-04-07T21:23:31.361Z,100.00
2023-04-07T21:26:02.311Z,100.00
2023-04-07T21:28:28.988Z,100.00
2023-04-07T21:30:56.848Z,100.00
2023-04-07T21:33:23.788Z,100.00
2023-04-07T21:35:51.399Z,100.00
2023-04-07T21:38:18.266Z,100.00
2023-04-07T21:40:45.093Z,100.00
2023-04-07T21:43:12.367Z,100.00
2023-04-07T21:45:39.378Z,100.00
2023-04-07T21:48:06.626Z,100.00
2023-04-07T21:50:33.373Z,100.00
2023-04-07T21:52:59.987Z,100.00
2023-04-07T21:55:27.345Z,100.00
2023-04-07T21:57:54.385Z,100.00
2023-04-07T22:00:21.864Z,100.00
2023-04-07T22:02:48.796Z,100.00
2023-04-07T22:05:16.131Z,100.00
2023-04-07T22:07:42.789Z,100.00
2023-04-07T22:10:09.749Z,100.00
2023-04-07T22:12:36.597Z,100.00
2023-04-07T22:15:03.497Z,100.00
2023-04-07T22:17:30.803Z,100.00
2023-04-07T22:19:57.442Z,100.00
2023-04-07T22:22:24.033Z,100.00
2023-04-07T22:24:50.676Z,100.00
2023-04-07T22:27:17.288Z,100.00
2023-04-07T22:29:43.940Z,100.00
2023-04-07T22:32:10.608Z,100.00
2023-04-07T22:34:37.188Z,100.00
2023-04-07T22:37:03.832Z,100.00
2023-04-07T22:39:30.529Z,100.00
2023-04-07T22:41:57.121Z,100.00
2023-04-07T22:44:23.763Z,100.00
2023-04-07T22:46:50.392Z,100.00
2023-04-07T22:49:17.170Z,100.00
2023-04-07T22:51:48.526Z,100.00
2023-04-07T22:54:18.466Z,100.00
2023-04-07T22:56:45.345Z,100.00
2023-04-07T22:59:12.185Z,100.00
2023-04-07T23:01:39.096Z,100.00
2023-04-07T23:04:05.996Z,100.00
2023-04-07T23:06:33.618Z,100.00
2023-04-07T23:09:00.538Z,100.00
2023-04-07T23:11:27.362Z,100.00
2023-04-07T23:13:54.125Z,100.00
2023-04-07T23:16:21.024Z,100.00
2023-04-07T23:18:47.962Z,100.00
2023-04-07T23:21:14.904Z,100.00
2023-04-07T23:23:41.698Z,100.00
2023-04-07T23:26:09.337Z,100.00
2023-04-07T23:28:36.200Z,100.00
2023-04-07T23:31:02.949Z,100.00
2023-04-07T23:33:31.835Z,100.00
2023-04-07T23:35:58.983Z,100.00
2023-04-07T23:38:26.319Z,100.00
2023-04-07T23:40:53.486Z,100.00
2023-04-07T23:43:20.402Z,100.00
2023-04-07T23:45:47.229Z,100.00
2023-04-07T23:48:13.995Z,100.00
2023-04-07T23:50:41.440Z,100.00
2023-04-07T23:53:08.460Z,100.00
2023-04-07T23:55:35.517Z,100.00
2023-04-07T23:58:02.336Z,100.00
